sensor_id;sensor_type;location;lat;lon;timestamp;P1;durP1;ratioP1;P2;durP2;ratioP2
36501;SDS011;25393;46.108;3.390;2022-09-09T00:01:51;2.72;;;0.70;;
36501;SDS011;25393;46.108;3.390;2022-09-09T00:12:51;5.72;;;1.23;;
36501;SDS011;25393;46.108;3.390;2022-09-09T00:16:07;5.72;;;0.98;;
36501;SDS011;25393;46.108;3.390;2022-09-09T00:18:32;5.38;;;0.82;;
36501;SDS011;25393;46.108;3.390;2022-09-09T00:21:18;2.38;;;0.73;;
36501;SDS011;25393;46.108;3.390;2022-09-09T00:23:48;2.70;;;0.98;;
36501;SDS011;25393;46.108;3.390;2022-09-09T00:31:38;3.25;;;0.95;;
36501;SDS011;25393;46.108;3.390;2022-09-09T00:36:52;5.68;;;1.38;;
36501;SDS011;25393;46.108;3.390;2022-09-09T00:39:29;0.70;;;0.70;;
36501;SDS011;25393;46.108;3.390;2022-09-09T00:42:20;3.83;;;0.90;;
36501;SDS011;25393;46.108;3.390;2022-09-09T00:44:52;9.07;;;1.35;;
36501;SDS011;25393;46.108;3.390;2022-09-09T00:52:59;1.58;;;0.75;;
36501;SDS011;25393;46.108;3.390;2022-09-09T00:58:16;6.93;;;1.45;;
36501;SDS011;25393;46.108;3.390;2022-09-09T01:00:44;4.93;;;1.00;;
36501;SDS011;25393;46.108;3.390;2022-09-09T01:03:33;5.00;;;0.88;;
36501;SDS011;25393;46.108;3.390;2022-09-09T01:11:30;5.97;;;1.00;;
36501;SDS011;25393;46.108;3.390;2022-09-09T01:16:36;4.13;;;0.90;;
36501;SDS011;25393;46.108;3.390;2022-09-09T01:19:04;4.15;;;0.93;;
36501;SDS011;25393;46.108;3.390;2022-09-09T01:27:09;2.35;;;0.82;;
36501;SDS011;25393;46.108;3.390;2022-09-09T01:29:36;1.90;;;0.75;;
36501;SDS011;25393;46.108;3.390;2022-09-09T01:35:08;4.65;;;1.00;;
36501;SDS011;25393;46.108;3.390;2022-09-09T01:37:41;1.95;;;0.68;;
36501;SDS011;25393;46.108;3.390;2022-09-09T01:40:08;2.40;;;0.80;;
36501;SDS011;25393;46.108;3.390;2022-09-09T01:42:34;8.60;;;1.75;;
36501;SDS011;25393;46.108;3.390;2022-09-09T01:45:01;1.17;;;0.68;;
36501;SDS011;25393;46.108;3.390;2022-09-09T01:47:28;6.50;;;0.90;;
36501;SDS011;25393;46.108;3.390;2022-09-09T01:49:54;1.75;;;0.80;;
36501;SDS011;25393;46.108;3.390;2022-09-09T01:52:21;6.25;;;1.25;;
36501;SDS011;25393;46.108;3.390;2022-09-09T01:54:48;4.45;;;0.93;;
36501;SDS011;25393;46.108;3.390;2022-09-09T02:05:39;1.83;;;0.90;;
36501;SDS011;25393;46.108;3.390;2022-09-09T02:08:08;3.13;;;0.95;;
36501;SDS011;25393;46.108;3.390;2022-09-09T02:10:45;2.45;;;0.70;;
36501;SDS011;25393;46.108;3.390;2022-09-09T02:13:17;4.78;;;1.02;;
36501;SDS011;25393;46.108;3.390;2022-09-09T02:15:58;2.42;;;0.70;;
36501;SDS011;25393;46.108;3.390;2022-09-09T02:18:38;5.25;;;0.88;;
36501;SDS011;25393;46.108;3.390;2022-09-09T02:21:11;6.85;;;0.88;;
36501;SDS011;25393;46.108;3.390;2022-09-09T02:23:40;4.35;;;1.55;;
36501;SDS011;25393;46.108;3.390;2022-09-09T02:26:10;3.10;;;0.77;;
36501;SDS011;25393;46.108;3.390;2022-09-09T02:28:39;3.97;;;0.90;;
36501;SDS011;25393;46.108;3.390;2022-09-09T02:31:08;3.47;;;1.60;;
36501;SDS011;25393;46.108;3.390;2022-09-09T02:33:37;8.18;;;1.05;;
36501;SDS011;25393;46.108;3.390;2022-09-09T02:36:09;4.22;;;0.90;;
36501;SDS011;25393;46.108;3.390;2022-09-09T02:38:40;5.05;;;1.50;;
36501;SDS011;25393;46.108;3.390;2022-09-09T02:41:12;4.75;;;0.98;;
36501;SDS011;25393;46.108;3.390;2022-09-09T02:43:38;4.00;;;0.98;;
36501;SDS011;25393;46.108;3.390;2022-09-09T02:54:27;3.92;;;0.77;;
36501;SDS011;25393;46.108;3.390;2022-09-09T02:57:07;5.03;;;0.90;;
36501;SDS011;25393;46.108;3.390;2022-09-09T02:59:47;2.92;;;1.08;;
36501;SDS011;25393;46.108;3.390;2022-09-09T03:02:15;4.65;;;1.02;;
36501;SDS011;25393;46.108;3.390;2022-09-09T03:04:42;2.45;;;1.02;;
36501;SDS011;25393;46.108;3.390;2022-09-09T03:07:11;3.35;;;1.30;;
36501;SDS011;25393;46.108;3.390;2022-09-09T03:09:38;5.18;;;0.80;;
36501;SDS011;25393;46.108;3.390;2022-09-09T03:12:04;1.55;;;0.80;;
36501;SDS011;25393;46.108;3.390;2022-09-09T03:14:31;3.13;;;0.90;;
36501;SDS011;25393;46.108;3.390;2022-09-09T03:16:58;3.65;;;1.00;;
36501;SDS011;25393;46.108;3.390;2022-09-09T03:19:27;2.80;;;0.77;;
36501;SDS011;25393;46.108;3.390;2022-09-09T03:21:57;1.90;;;1.05;;
36501;SDS011;25393;46.108;3.390;2022-09-09T03:24:27;3.65;;;0.98;;
36501;SDS011;25393;46.108;3.390;2022-09-09T03:26:54;1.85;;;0.60;;
36501;SDS011;25393;46.108;3.390;2022-09-09T03:29:23;2.08;;;0.80;;
36501;SDS011;25393;46.108;3.390;2022-09-09T03:31:53;1.67;;;1.17;;
36501;SDS011;25393;46.108;3.390;2022-09-09T03:34:22;2.40;;;1.02;;
36501;SDS011;25393;46.108;3.390;2022-09-09T03:36:49;6.10;;;1.17;;
36501;SDS011;25393;46.108;3.390;2022-09-09T03:39:15;4.82;;;1.00;;
36501;SDS011;25393;46.108;3.390;2022-09-09T03:41:42;2.47;;;0.85;;
36501;SDS011;25393;46.108;3.390;2022-09-09T03:44:12;1.58;;;1.00;;
36501;SDS011;25393;46.108;3.390;2022-09-09T03:46:39;3.63;;;0.90;;
36501;SDS011;25393;46.108;3.390;2022-09-09T03:49:05;5.38;;;0.90;;
36501;SDS011;25393;46.108;3.390;2022-09-09T03:51:32;3.35;;;1.17;;
36501;SDS011;25393;46.108;3.390;2022-09-09T03:54:02;2.40;;;0.70;;
36501;SDS011;25393;46.108;3.390;2022-09-09T03:56:31;3.88;;;1.10;;
36501;SDS011;25393;46.108;3.390;2022-09-09T03:58:57;3.63;;;0.95;;
36501;SDS011;25393;46.108;3.390;2022-09-09T04:01:24;2.60;;;1.00;;
36501;SDS011;25393;46.108;3.390;2022-09-09T04:03:51;8.63;;;0.88;;
36501;SDS011;25393;46.108;3.390;2022-09-09T04:06:18;4.72;;;0.77;;
36501;SDS011;25393;46.108;3.390;2022-09-09T04:08:47;4.18;;;0.90;;
36501;SDS011;25393;46.108;3.390;2022-09-09T04:11:15;3.67;;;0.90;;
36501;SDS011;25393;46.108;3.390;2022-09-09T04:13:42;1.77;;;0.90;;
36501;SDS011;25393;46.108;3.390;2022-09-09T04:16:11;2.15;;;1.00;;
36501;SDS011;25393;46.108;3.390;2022-09-09T04:18:39;5.15;;;1.50;;
36501;SDS011;25393;46.108;3.390;2022-09-09T04:21:06;3.83;;;0.80;;
36501;SDS011;25393;46.108;3.390;2022-09-09T04:23:34;3.42;;;1.45;;
36501;SDS011;25393;46.108;3.390;2022-09-09T04:26:02;1.90;;;1.20;;
36501;SDS011;25393;46.108;3.390;2022-09-09T04:28:31;5.13;;;0.90;;
36501;SDS011;25393;46.108;3.390;2022-09-09T04:31:09;3.28;;;1.10;;
36501;SDS011;25393;46.108;3.390;2022-09-09T04:33:39;6.07;;;1.55;;
36501;SDS011;25393;46.108;3.390;2022-09-09T04:36:06;3.65;;;0.98;;
36501;SDS011;25393;46.108;3.390;2022-09-09T04:38:34;3.00;;;1.00;;
36501;SDS011;25393;46.108;3.390;2022-09-09T04:41:00;5.55;;;1.00;;
36501;SDS011;25393;46.108;3.390;2022-09-09T04:43:27;3.58;;;0.93;;
36501;SDS011;25393;46.108;3.390;2022-09-09T04:45:56;4.82;;;1.17;;
36501;SDS011;25393;46.108;3.390;2022-09-09T04:48:23;4.65;;;1.45;;
36501;SDS011;25393;46.108;3.390;2022-09-09T04:50:55;5.22;;;0.95;;
36501;SDS011;25393;46.108;3.390;2022-09-09T04:53:28;4.32;;;1.23;;
36501;SDS011;25393;46.108;3.390;2022-09-09T04:56:04;3.08;;;1.45;;
36501;SDS011;25393;46.108;3.390;2022-09-09T04:58:33;2.28;;;1.13;;
36501;SDS011;25393;46.108;3.390;2022-09-09T05:01:06;4.05;;;0.85;;
36501;SDS011;25393;46.108;3.390;2022-09-09T05:03:35;5.80;;;1.15;;
36501;SDS011;25393;46.108;3.390;2022-09-09T05:06:05;3.10;;;1.05;;
36501;SDS011;25393;46.108;3.390;2022-09-09T05:08:45;1.42;;;0.82;;
36501;SDS011;25393;46.108;3.390;2022-09-09T05:11:15;5.82;;;1.50;;
36501;SDS011;25393;46.108;3.390;2022-09-09T05:13:50;1.90;;;1.10;;
36501;SDS011;25393;46.108;3.390;2022-09-09T05:16:17;3.08;;;1.10;;
36501;SDS011;25393;46.108;3.390;2022-09-09T05:18:44;3.83;;;1.20;;
36501;SDS011;25393;46.108;3.390;2022-09-09T05:21:16;3.97;;;1.20;;
36501;SDS011;25393;46.108;3.390;2022-09-09T05:23:44;13.38;;;1.25;;
36501;SDS011;25393;46.108;3.390;2022-09-09T05:26:13;2.47;;;0.75;;
36501;SDS011;25393;46.108;3.390;2022-09-09T05:28:43;2.03;;;1.17;;
36501;SDS011;25393;46.108;3.390;2022-09-09T05:31:10;1.17;;;0.80;;
36501;SDS011;25393;46.108;3.390;2022-09-09T05:33:41;4.38;;;1.35;;
36501;SDS011;25393;46.108;3.390;2022-09-09T05:36:10;6.82;;;0.93;;
36501;SDS011;25393;46.108;3.390;2022-09-09T05:38:43;4.82;;;0.82;;
36501;SDS011;25393;46.108;3.390;2022-09-09T05:41:11;9.20;;;1.05;;
36501;SDS011;25393;46.108;3.390;2022-09-09T05:43:41;7.35;;;0.82;;
36501;SDS011;25393;46.108;3.390;2022-09-09T05:46:11;6.60;;;1.33;;
36501;SDS011;25393;46.108;3.390;2022-09-09T05:48:41;3.38;;;0.70;;
36501;SDS011;25393;46.108;3.390;2022-09-09T05:51:10;7.10;;;1.10;;
36501;SDS011;25393;46.108;3.390;2022-09-09T05:53:39;5.00;;;1.13;;
36501;SDS011;25393;46.108;3.390;2022-09-09T05:56:06;4.53;;;1.02;;
36501;SDS011;25393;46.108;3.390;2022-09-09T05:58:37;6.07;;;0.90;;
36501;SDS011;25393;46.108;3.390;2022-09-09T06:01:05;7.03;;;0.98;;
36501;SDS011;25393;46.108;3.390;2022-09-09T06:03:36;3.95;;;1.08;;
36501;SDS011;25393;46.108;3.390;2022-09-09T06:06:04;3.28;;;1.23;;
36501;SDS011;25393;46.108;3.390;2022-09-09T06:08:34;1.83;;;0.85;;
36501;SDS011;25393;46.108;3.390;2022-09-09T06:11:10;6.28;;;1.27;;
36501;SDS011;25393;46.108;3.390;2022-09-09T06:13:41;3.72;;;0.75;;
36501;SDS011;25393;46.108;3.390;2022-09-09T06:16:11;2.83;;;1.40;;
36501;SDS011;25393;46.108;3.390;2022-09-09T06:18:40;8.23;;;1.35;;
36501;SDS011;25393;46.108;3.390;2022-09-09T06:21:09;7.78;;;2.03;;
36501;SDS011;25393;46.108;3.390;2022-09-09T06:23:40;11.38;;;1.55;;
36501;SDS011;25393;46.108;3.390;2022-09-09T06:28:45;6.40;;;0.70;;
36501;SDS011;25393;46.108;3.390;2022-09-09T06:31:16;5.35;;;1.58;;
36501;SDS011;25393;46.108;3.390;2022-09-09T06:33:52;3.15;;;1.00;;
36501;SDS011;25393;46.108;3.390;2022-09-09T06:38:51;6.05;;;1.55;;
36501;SDS011;25393;46.108;3.390;2022-09-09T06:41:18;4.07;;;1.00;;
36501;SDS011;25393;46.108;3.390;2022-09-09T06:43:46;2.20;;;1.08;;
36501;SDS011;25393;46.108;3.390;2022-09-09T06:46:14;8.57;;;1.20;;
36501;SDS011;25393;46.108;3.390;2022-09-09T06:48:46;3.53;;;1.10;;
36501;SDS011;25393;46.108;3.390;2022-09-09T06:53:44;5.00;;;1.13;;
36501;SDS011;25393;46.108;3.390;2022-09-09T06:56:20;7.10;;;1.10;;
36501;SDS011;25393;46.108;3.390;2022-09-09T06:58:58;2.97;;;0.70;;
36501;SDS011;25393;46.108;3.390;2022-09-09T07:01:29;6.75;;;1.13;;
36501;SDS011;25393;46.108;3.390;2022-09-09T07:04:01;6.07;;;1.00;;
36501;SDS011;25393;46.108;3.390;2022-09-09T07:06:33;4.20;;;0.98;;
36501;SDS011;25393;46.108;3.390;2022-09-09T07:09:03;1.85;;;0.80;;
36501;SDS011;25393;46.108;3.390;2022-09-09T07:11:33;3.88;;;1.70;;
36501;SDS011;25393;46.108;3.390;2022-09-09T07:14:04;4.03;;;1.05;;
36501;SDS011;25393;46.108;3.390;2022-09-09T07:16:32;5.00;;;1.20;;
36501;SDS011;25393;46.108;3.390;2022-09-09T07:18:59;7.90;;;1.42;;
36501;SDS011;25393;46.108;3.390;2022-09-09T07:21:32;5.60;;;1.13;;
36501;SDS011;25393;46.108;3.390;2022-09-09T07:24:02;5.22;;;1.20;;
36501;SDS011;25393;46.108;3.390;2022-09-09T07:26:31;7.40;;;1.10;;
36501;SDS011;25393;46.108;3.390;2022-09-09T07:28:57;3.78;;;1.15;;
36501;SDS011;25393;46.108;3.390;2022-09-09T07:31:25;10.30;;;1.35;;
36501;SDS011;25393;46.108;3.390;2022-09-09T07:33:54;6.38;;;1.10;;
36501;SDS011;25393;46.108;3.390;2022-09-09T07:36:24;6.28;;;1.40;;
36501;SDS011;25393;46.108;3.390;2022-09-09T07:38:59;4.85;;;0.90;;
36501;SDS011;25393;46.108;3.390;2022-09-09T07:41:32;11.20;;;1.30;;
36501;SDS011;25393;46.108;3.390;2022-09-09T07:44:03;5.18;;;1.35;;
36501;SDS011;25393;46.108;3.390;2022-09-09T07:46:35;5.55;;;1.10;;
36501;SDS011;25393;46.108;3.390;2022-09-09T07:49:02;6.82;;;0.85;;
36501;SDS011;25393;46.108;3.390;2022-09-09T07:51:31;5.70;;;1.15;;
36501;SDS011;25393;46.108;3.390;2022-09-09T07:54:05;5.53;;;1.13;;
36501;SDS011;25393;46.108;3.390;2022-09-09T07:56:33;6.13;;;1.02;;
36501;SDS011;25393;46.108;3.390;2022-09-09T07:59:02;9.80;;;1.50;;
36501;SDS011;25393;46.108;3.390;2022-09-09T08:01:33;9.38;;;1.17;;
36501;SDS011;25393;46.108;3.390;2022-09-09T08:04:04;4.00;;;1.23;;
36501;SDS011;25393;46.108;3.390;2022-09-09T08:06:37;6.60;;;1.02;;
36501;SDS011;25393;46.108;3.390;2022-09-09T08:09:07;5.00;;;0.98;;
36501;SDS011;25393;46.108;3.390;2022-09-09T08:11:35;2.35;;;0.80;;
36501;SDS011;25393;46.108;3.390;2022-09-09T08:14:04;8.13;;;1.45;;
36501;SDS011;25393;46.108;3.390;2022-09-09T08:16:34;6.32;;;2.65;;
36501;SDS011;25393;46.108;3.390;2022-09-09T08:19:03;5.88;;;3.53;;
36501;SDS011;25393;46.108;3.390;2022-09-09T08:21:32;4.97;;;3.53;;
36501;SDS011;25393;46.108;3.390;2022-09-09T08:24:02;7.57;;;3.58;;
36501;SDS011;25393;46.108;3.390;2022-09-09T08:26:35;9.48;;;3.50;;
36501;SDS011;25393;46.108;3.390;2022-09-09T08:29:06;8.15;;;3.80;;
36501;SDS011;25393;46.108;3.390;2022-09-09T08:31:34;6.43;;;3.67;;
36501;SDS011;25393;46.108;3.390;2022-09-09T08:34:03;4.13;;;3.30;;
36501;SDS011;25393;46.108;3.390;2022-09-09T08:36:33;3.88;;;3.50;;
36501;SDS011;25393;46.108;3.390;2022-09-09T08:39:03;7.18;;;3.10;;
36501;SDS011;25393;46.108;3.390;2022-09-09T08:47:01;6.72;;;3.92;;
36501;SDS011;25393;46.108;3.390;2022-09-09T08:52:44;5.13;;;3.70;;
36501;SDS011;25393;46.108;3.390;2022-09-09T08:55:56;6.40;;;3.83;;
36501;SDS011;25393;46.108;3.390;2022-09-09T08:58:34;4.25;;;3.65;;
36501;SDS011;25393;46.108;3.390;2022-09-09T09:01:13;6.78;;;3.80;;
36501;SDS011;25393;46.108;3.390;2022-09-09T09:03:48;4.35;;;3.70;;
36501;SDS011;25393;46.108;3.390;2022-09-09T09:06:49;12.35;;;4.03;;
36501;SDS011;25393;46.108;3.390;2022-09-09T09:09:51;4.97;;;3.70;;
36501;SDS011;25393;46.108;3.390;2022-09-09T09:12:50;4.13;;;3.60;;
36501;SDS011;25393;46.108;3.390;2022-09-09T09:15:23;4.32;;;3.85;;
36501;SDS011;25393;46.108;3.390;2022-09-09T09:17:57;3.42;;;3.15;;
36501;SDS011;25393;46.108;3.390;2022-09-09T09:23:10;5.20;;;3.13;;
36501;SDS011;25393;46.108;3.390;2022-09-09T09:25:45;3.88;;;3.47;;
36501;SDS011;25393;46.108;3.390;2022-09-09T09:33:36;6.68;;;3.63;;
36501;SDS011;25393;46.108;3.390;2022-09-09T09:36:13;5.25;;;3.35;;
36501;SDS011;25393;46.108;3.390;2022-09-09T09:38:51;6.78;;;3.72;;
36501;SDS011;25393;46.108;3.390;2022-09-09T09:41:43;4.32;;;3.10;;
36501;SDS011;25393;46.108;3.390;2022-09-09T09:44:26;6.95;;;3.28;;
36501;SDS011;25393;46.108;3.390;2022-09-09T09:49:54;9.00;;;3.33;;
36501;SDS011;25393;46.108;3.390;2022-09-09T09:52:23;6.00;;;3.30;;
36501;SDS011;25393;46.108;3.390;2022-09-09T09:54:52;5.75;;;3.30;;
36501;SDS011;25393;46.108;3.390;2022-09-09T09:57:28;5.97;;;3.35;;
36501;SDS011;25393;46.108;3.390;2022-09-09T10:02:47;4.82;;;3.40;;
36501;SDS011;25393;46.108;3.390;2022-09-09T10:05:18;5.60;;;3.40;;
36501;SDS011;25393;46.108;3.390;2022-09-09T10:08:08;4.68;;;3.20;;
36501;SDS011;25393;46.108;3.390;2022-09-09T10:10:43;3.40;;;3.10;;
36501;SDS011;25393;46.108;3.390;2022-09-09T10:13:19;3.60;;;3.30;;
36501;SDS011;25393;46.108;3.390;2022-09-09T10:24:14;4.10;;;3.50;;
36501;SDS011;25393;46.108;3.390;2022-09-09T10:29:53;3.28;;;3.00;;
36501;SDS011;25393;46.108;3.390;2022-09-09T10:32:48;3.95;;;3.60;;
36501;SDS011;25393;46.108;3.390;2022-09-09T10:35:31;3.30;;;3.00;;
36501;SDS011;25393;46.108;3.390;2022-09-09T10:38:14;4.63;;;3.08;;
36501;SDS011;25393;46.108;3.390;2022-09-09T10:46:46;4.28;;;3.40;;
36501;SDS011;25393;46.108;3.390;2022-09-09T10:52:14;3.53;;;3.10;;
36501;SDS011;25393;46.108;3.390;2022-09-09T10:57:39;7.80;;;3.22;;
36501;SDS011;25393;46.108;3.390;2022-09-09T11:00:17;3.47;;;3.15;;
36501;SDS011;25393;46.108;3.390;2022-09-09T11:02:48;5.30;;;3.60;;
36501;SDS011;25393;46.108;3.390;2022-09-09T11:05:27;3.40;;;3.10;;
36501;SDS011;25393;46.108;3.390;2022-09-09T11:07:58;7.55;;;3.42;;
36501;SDS011;25393;46.108;3.390;2022-09-09T11:10:52;6.80;;;3.13;;
36501;SDS011;25393;46.108;3.390;2022-09-09T11:16:28;3.40;;;3.20;;
36501;SDS011;25393;46.108;3.390;2022-09-09T11:19:21;3.78;;;3.17;;
36501;SDS011;25393;46.108;3.390;2022-09-09T11:21:56;5.90;;;3.42;;
36501;SDS011;25393;46.108;3.390;2022-09-09T11:24:31;3.90;;;3.45;;
36501;SDS011;25393;46.108;3.390;2022-09-09T11:27:07;5.30;;;3.30;;
36501;SDS011;25393;46.108;3.390;2022-09-09T11:32:40;3.80;;;3.03;;
36501;SDS011;25393;46.108;3.390;2022-09-09T11:40:42;3.00;;;2.80;;
36501;SDS011;25393;46.108;3.390;2022-09-09T11:45:42;7.22;;;3.40;;
36501;SDS011;25393;46.108;3.390;2022-09-09T11:48:28;5.53;;;3.60;;
36501;SDS011;25393;46.108;3.390;2022-09-09T11:53:35;3.10;;;2.90;;
36501;SDS011;25393;46.108;3.390;2022-09-09T11:56:04;5.55;;;3.28;;
36501;SDS011;25393;46.108;3.390;2022-09-09T11:58:41;3.60;;;3.30;;
36501;SDS011;25393;46.108;3.390;2022-09-09T12:01:26;3.33;;;3.00;;
36501;SDS011;25393;46.108;3.390;2022-09-09T12:04:11;3.88;;;3.20;;
36501;SDS011;25393;46.108;3.390;2022-09-09T12:06:56;3.30;;;3.00;;
36501;SDS011;25393;46.108;3.390;2022-09-09T12:09:45;3.42;;;3.10;;
36501;SDS011;25393;46.108;3.390;2022-09-09T12:12:37;4.10;;;3.70;;
36501;SDS011;25393;46.108;3.390;2022-09-09T12:17:51;3.58;;;3.28;;
36501;SDS011;25393;46.108;3.390;2022-09-09T12:20:20;3.90;;;3.00;;
36501;SDS011;25393;46.108;3.390;2022-09-09T12:28:47;3.75;;;3.35;;
36501;SDS011;25393;46.108;3.390;2022-09-09T12:34:02;6.35;;;3.75;;
36501;SDS011;25393;46.108;3.390;2022-09-09T12:36:53;3.67;;;2.97;;
36501;SDS011;25393;46.108;3.390;2022-09-09T12:39:29;3.95;;;3.22;;
36501;SDS011;25393;46.108;3.390;2022-09-09T12:42:00;4.15;;;3.15;;
36501;SDS011;25393;46.108;3.390;2022-09-09T12:44:27;5.68;;;3.40;;
36501;SDS011;25393;46.108;3.390;2022-09-09T12:47:00;3.22;;;3.03;;
36501;SDS011;25393;46.108;3.390;2022-09-09T12:52:06;3.58;;;3.28;;
36501;SDS011;25393;46.108;3.390;2022-09-09T12:54:42;3.65;;;3.20;;
36501;SDS011;25393;46.108;3.390;2022-09-09T12:57:12;4.95;;;2.97;;
36501;SDS011;25393;46.108;3.390;2022-09-09T12:59:42;3.80;;;3.50;;
36501;SDS011;25393;46.108;3.390;2022-09-09T13:02:16;7.53;;;4.03;;
36501;SDS011;25393;46.108;3.390;2022-09-09T13:04:45;4.03;;;3.38;;
36501;SDS011;25393;46.108;3.390;2022-09-09T13:07:13;3.85;;;3.15;;
36501;SDS011;25393;46.108;3.390;2022-09-09T13:09:42;9.75;;;3.70;;
36501;SDS011;25393;46.108;3.390;2022-09-09T13:12:21;3.20;;;2.95;;
36501;SDS011;25393;46.108;3.390;2022-09-09T13:14:52;2.90;;;2.70;;
36501;SDS011;25393;46.108;3.390;2022-09-09T13:17:23;4.53;;;3.03;;
36501;SDS011;25393;46.108;3.390;2022-09-09T13:19:51;3.10;;;2.80;;
36501;SDS011;25393;46.108;3.390;2022-09-09T13:24:47;5.47;;;3.28;;
36501;SDS011;25393;46.108;3.390;2022-09-09T13:27:33;3.45;;;2.83;;
36501;SDS011;25393;46.108;3.390;2022-09-09T13:35:55;3.08;;;2.83;;
36501;SDS011;25393;46.108;3.390;2022-09-09T13:38:22;3.05;;;2.83;;
36501;SDS011;25393;46.108;3.390;2022-09-09T13:41:00;3.20;;;2.90;;
36501;SDS011;25393;46.108;3.390;2022-09-09T13:43:31;3.13;;;2.75;;
36501;SDS011;25393;46.108;3.390;2022-09-09T13:46:04;3.10;;;2.83;;
36501;SDS011;25393;46.108;3.390;2022-09-09T13:48:55;6.50;;;3.20;;
36501;SDS011;25393;46.108;3.390;2022-09-09T13:54:27;4.82;;;3.13;;
36501;SDS011;25393;46.108;3.390;2022-09-09T13:57:16;2.85;;;2.65;;
36501;SDS011;25393;46.108;3.390;2022-09-09T13:59:47;5.70;;;3.13;;
36501;SDS011;25393;46.108;3.390;2022-09-09T14:02:37;3.55;;;2.90;;
36501;SDS011;25393;46.108;3.390;2022-09-09T14:05:06;3.20;;;2.90;;
36501;SDS011;25393;46.108;3.390;2022-09-09T14:07:37;5.68;;;3.25;;
36501;SDS011;25393;46.108;3.390;2022-09-09T14:10:22;6.30;;;2.97;;
36501;SDS011;25393;46.108;3.390;2022-09-09T14:13:21;3.00;;;2.80;;
36501;SDS011;25393;46.108;3.390;2022-09-09T14:15:48;3.38;;;2.60;;
36501;SDS011;25393;46.108;3.390;2022-09-09T14:18:14;3.00;;;2.80;;
36501;SDS011;25393;46.108;3.390;2022-09-09T14:20:41;3.30;;;3.00;;
36501;SDS011;25393;46.108;3.390;2022-09-09T14:23:09;3.55;;;2.78;;
36501;SDS011;25393;46.108;3.390;2022-09-09T14:25:39;3.55;;;3.13;;
36501;SDS011;25393;46.108;3.390;2022-09-09T14:28:08;5.43;;;2.90;;
36501;SDS011;25393;46.108;3.390;2022-09-09T14:30:39;5.10;;;3.13;;
36501;SDS011;25393;46.108;3.390;2022-09-09T14:33:08;3.15;;;2.92;;
36501;SDS011;25393;46.108;3.390;2022-09-09T14:35:37;3.03;;;2.83;;
36501;SDS011;25393;46.108;3.390;2022-09-09T14:38:04;8.50;;;3.40;;
36501;SDS011;25393;46.108;3.390;2022-09-09T14:40:31;3.35;;;3.10;;
36501;SDS011;25393;46.108;3.390;2022-09-09T14:42:57;5.68;;;3.05;;
36501;SDS011;25393;46.108;3.390;2022-09-09T14:45:24;4.75;;;2.90;;
36501;SDS011;25393;46.108;3.390;2022-09-09T14:47:51;4.38;;;3.10;;
36501;SDS011;25393;46.108;3.390;2022-09-09T14:50:18;5.95;;;3.20;;
36501;SDS011;25393;46.108;3.390;2022-09-09T14:52:45;5.40;;;3.10;;
36501;SDS011;25393;46.108;3.390;2022-09-09T14:55:13;5.05;;;3.40;;
36501;SDS011;25393;46.108;3.390;2022-09-09T14:57:41;5.88;;;3.20;;
36501;SDS011;25393;46.108;3.390;2022-09-09T15:00:09;10.00;;;3.25;;
36501;SDS011;25393;46.108;3.390;2022-09-09T15:02:39;6.22;;;3.30;;
36501;SDS011;25393;46.108;3.390;2022-09-09T15:05:06;3.80;;;3.50;;
36501;SDS011;25393;46.108;3.390;2022-09-09T15:07:39;6.50;;;3.40;;
36501;SDS011;25393;46.108;3.390;2022-09-09T15:10:06;5.32;;;3.17;;
36501;SDS011;25393;46.108;3.390;2022-09-09T15:12:40;8.55;;;3.85;;
36501;SDS011;25393;46.108;3.390;2022-09-09T15:15:08;4.35;;;3.50;;
36501;SDS011;25393;46.108;3.390;2022-09-09T15:17:35;3.80;;;3.10;;
36501;SDS011;25393;46.108;3.390;2022-09-09T15:20:04;3.85;;;3.47;;
36501;SDS011;25393;46.108;3.390;2022-09-09T15:22:34;4.88;;;3.50;;
36501;SDS011;25393;46.108;3.390;2022-09-09T15:25:05;8.40;;;3.40;;
36501;SDS011;25393;46.108;3.390;2022-09-09T15:27:32;6.53;;;3.40;;
36501;SDS011;25393;46.108;3.390;2022-09-09T15:30:00;6.13;;;3.40;;
36501;SDS011;25393;46.108;3.390;2022-09-09T15:32:27;4.25;;;3.60;;
36501;SDS011;25393;46.108;3.390;2022-09-09T15:34:56;7.65;;;4.30;;
36501;SDS011;25393;46.108;3.390;2022-09-09T15:37:25;4.95;;;4.15;;
36501;SDS011;25393;46.108;3.390;2022-09-09T15:39:51;4.03;;;3.63;;
36501;SDS011;25393;46.108;3.390;2022-09-09T15:42:18;7.57;;;4.00;;
36501;SDS011;25393;46.108;3.390;2022-09-09T15:44:44;5.90;;;3.60;;
36501;SDS011;25393;46.108;3.390;2022-09-09T15:47:11;7.57;;;3.95;;
36501;SDS011;25393;46.108;3.390;2022-09-09T15:49:42;4.57;;;3.78;;
36501;SDS011;25393;46.108;3.390;2022-09-09T15:52:11;8.35;;;3.90;;
36501;SDS011;25393;46.108;3.390;2022-09-09T15:54:37;6.82;;;3.80;;
36501;SDS011;25393;46.108;3.390;2022-09-09T15:57:06;10.27;;;3.80;;
36501;SDS011;25393;46.108;3.390;2022-09-09T15:59:38;5.45;;;3.67;;
36501;SDS011;25393;46.108;3.390;2022-09-09T16:02:06;5.07;;;3.72;;
36501;SDS011;25393;46.108;3.390;2022-09-09T16:04:36;3.97;;;3.60;;
36501;SDS011;25393;46.108;3.390;2022-09-09T16:07:09;5.43;;;3.92;;
36501;SDS011;25393;46.108;3.390;2022-09-09T16:09:36;3.67;;;3.35;;
36501;SDS011;25393;46.108;3.390;2022-09-09T16:12:06;3.60;;;3.40;;
36501;SDS011;25393;46.108;3.390;2022-09-09T16:14:41;5.55;;;3.38;;
36501;SDS011;25393;46.108;3.390;2022-09-09T16:17:08;8.70;;;3.97;;
36501;SDS011;25393;46.108;3.390;2022-09-09T16:19:34;3.38;;;3.10;;
36501;SDS011;25393;46.108;3.390;2022-09-09T16:22:04;3.60;;;3.35;;
36501;SDS011;25393;46.108;3.390;2022-09-09T16:24:30;4.78;;;3.50;;
36501;SDS011;25393;46.108;3.390;2022-09-09T16:26:57;3.78;;;3.40;;
36501;SDS011;25393;46.108;3.390;2022-09-09T16:29:24;5.90;;;3.45;;
36501;SDS011;25393;46.108;3.390;2022-09-09T16:31:58;3.72;;;3.40;;
36501;SDS011;25393;46.108;3.390;2022-09-09T16:34:29;9.25;;;3.80;;
36501;SDS011;25393;46.108;3.390;2022-09-09T16:36:56;3.90;;;3.55;;
36501;SDS011;25393;46.108;3.390;2022-09-09T16:39:22;3.80;;;3.45;;
36501;SDS011;25393;46.108;3.390;2022-09-09T16:41:49;8.35;;;3.75;;
36501;SDS011;25393;46.108;3.390;2022-09-09T16:44:16;3.83;;;3.13;;
36501;SDS011;25393;46.108;3.390;2022-09-09T16:46:45;3.45;;;3.20;;
36501;SDS011;25393;46.108;3.390;2022-09-09T16:49:15;6.95;;;3.17;;
36501;SDS011;25393;46.108;3.390;2022-09-09T16:51:45;6.55;;;3.47;;
36501;SDS011;25393;46.108;3.390;2022-09-09T16:54:13;5.80;;;3.35;;
36501;SDS011;25393;46.108;3.390;2022-09-09T16:56:43;10.75;;;8.27;;
36501;SDS011;25393;46.108;3.390;2022-09-09T16:59:14;8.18;;;3.20;;
36501;SDS011;25393;46.108;3.390;2022-09-09T17:01:44;3.97;;;3.65;;
36501;SDS011;25393;46.108;3.390;2022-09-09T17:04:13;5.35;;;3.38;;
36501;SDS011;25393;46.108;3.390;2022-09-09T17:06:45;5.18;;;3.60;;
36501;SDS011;25393;46.108;3.390;2022-09-09T17:09:12;5.65;;;3.10;;
36501;SDS011;25393;46.108;3.390;2022-09-09T17:11:39;4.63;;;2.70;;
36501;SDS011;25393;46.108;3.390;2022-09-09T17:14:10;4.95;;;3.00;;
36501;SDS011;25393;46.108;3.390;2022-09-09T17:16:41;6.40;;;3.10;;
36501;SDS011;25393;46.108;3.390;2022-09-09T17:19:08;6.88;;;3.00;;
36501;SDS011;25393;46.108;3.390;2022-09-09T17:21:36;4.55;;;3.13;;
36501;SDS011;25393;46.108;3.390;2022-09-09T17:24:28;5.30;;;3.33;;
36501;SDS011;25393;46.108;3.390;2022-09-09T17:26:55;9.18;;;3.17;;
36501;SDS011;25393;46.108;3.390;2022-09-09T17:29:23;7.60;;;3.75;;
36501;SDS011;25393;46.108;3.390;2022-09-09T17:31:51;9.02;;;3.08;;
36501;SDS011;25393;46.108;3.390;2022-09-09T17:34:17;7.07;;;3.17;;
36501;SDS011;25393;46.108;3.390;2022-09-09T17:36:44;4.70;;;3.08;;
36501;SDS011;25393;46.108;3.390;2022-09-09T17:39:11;3.10;;;2.90;;
36501;SDS011;25393;46.108;3.390;2022-09-09T17:41:40;7.95;;;3.20;;
36501;SDS011;25393;46.108;3.390;2022-09-09T17:44:07;4.38;;;3.00;;
36501;SDS011;25393;46.108;3.390;2022-09-09T17:46:38;4.95;;;3.17;;
36501;SDS011;25393;46.108;3.390;2022-09-09T17:49:07;6.35;;;2.78;;